Time;durP1;ratioP1;P1;durP2;ratioP2;P2;SDS_P1;SDS_P2;PMS_P1;PMS_P2;Temp;Humidity;BMP_temperature;BMP_pressure;BME280_temperature;BME280_humidity;BME280_pressure;Samples;Min_cycle;Max_cycle;Signal;HPM_P1;HPM_P2
2022/10/25 00:00:08;;;;;;;;;;;14.50;72.20;;;10.13;100.00;95916.56;5018024;28;20454;-52
2022/10/25 00:02:35;;;;;;;;;;;14.60;72.20;;;10.18;100.00;95918.47;5014759;28;19912;-53
2022/10/25 00:05:05;;;;;;;;;;;14.60;72.30;;;10.19;100.00;95930.72;5032110;28;19917;-53
2022/10/25 00:07:30;;;;;;;;;;;14.60;72.30;;;10.19;100.00;95920.88;5035720;28;20280;-52
2022/10/25 00:09:56;;;;;;;;;;;14.60;72.30;;;10.26;100.00;95911.88;5030590;28;19908;-51
2022/10/25 00:12:22;;;;;;;;;;;14.60;72.30;;;10.27;100.00;95894.88;5030067;28;19954;-53
2022/10/25 00:14:54;;;;;;;;;;;14.60;72.30;;;10.27;100.00;95890.34;5030900;28;19914;-49
2022/10/25 00:17:19;;;;;;;;;;;14.60;72.30;;;10.27;100.00;95889.53;5031053;28;20348;-53
2022/10/25 00:19:48;;;;;;;;;;;14.60;72.30;;;10.29;100.00;95887.44;5031216;28;19919;-49
2022/10/25 00:22:17;;;;;;;;;;;14.60;72.30;;;10.28;100.00;95876.00;5030623;28;19920;-50
2022/10/25 00:24:48;;;;;;;;;;;14.60;73.10;;;10.28;100.00;95877.84;5031006;28;19916;-49
2022/10/25 00:27:14;;;;;;;;;;;14.60;72.30;;;10.24;100.00;95872.19;5030218;28;19916;-50
2022/10/25 00:29:40;;;;;;;;;;;14.60;72.40;;;10.27;100.00;95863.72;5016228;28;19915;-51
2022/10/25 00:32:08;;;;;;;;;;;14.60;72.40;;;10.32;100.00;95860.31;5037994;28;19913;-49
2022/10/25 00:34:40;;;;;;;;;;;14.60;72.50;;;10.31;100.00;95856.84;5031736;28;19912;-50
2022/10/25 00:37:09;;;;;;;;;;;14.60;72.60;;;10.33;100.00;95864.56;5026341;28;19919;-52
2022/10/25 00:39:35;;;;;;;;;;;14.60;72.50;;;10.37;100.00;95884.28;5013535;28;19920;-50
2022/10/25 00:42:01;;;;;;;;;;;14.60;72.60;;;10.37;100.00;95879.78;5034195;28;19908;-53
2022/10/25 00:44:49;;;;;;;;;;;14.60;72.60;;;10.40;100.00;95875.78;5014162;28;20065;-51
2022/10/25 00:47:21;;;;;;;;;;;14.60;72.60;;;10.41;100.00;95882.75;5013714;28;19913;-55
2022/10/25 00:50:29;;;;;;;;;;;14.70;72.70;;;10.41;100.00;95880.88;5039041;28;19915;-54
2022/10/25 00:53:04;;;;;;;;;;;14.70;72.70;;;10.43;100.00;95875.28;5031362;28;19920;-52
2022/10/25 00:55:31;;;;;;;;;;;14.70;72.60;;;10.42;100.00;95882.47;5012398;28;19969;-49
2022/10/25 00:58:20;;;;;;;;;;;14.80;72.70;;;10.41;100.00;95883.53;5013780;28;19915;-49
2022/10/25 01:00:49;;;;;;;;;;;14.80;72.70;;;10.41;100.00;95894.19;5014998;28;20024;-51
2022/10/25 01:03:19;;;;;;;;;;;14.80;72.60;;;10.43;100.00;95899.25;5013382;28;19913;-51
2022/10/25 01:05:47;;;;;;;;;;;14.80;72.50;;;10.41;100.00;95904.03;5032889;28;19912;-52
2022/10/25 01:08:20;;;;;;;;;;;14.80;72.60;;;10.37;100.00;95905.59;4998250;28;20367;-51
2022/10/25 01:10:47;;;;;;;;;;;14.80;72.50;;;10.42;100.00;95900.31;5031049;28;19908;-50
2022/10/25 01:13:13;;;;;;;;;;;14.80;72.50;;;10.44;100.00;95894.75;5012415;28;19913;-50
2022/10/25 01:16:15;;;;;;;;;;;14.80;72.60;;;10.44;100.00;95879.56;5012997;28;20386;-51
2022/10/25 01:19:16;;;;;;;;;;;14.80;72.60;;;10.44;100.00;95876.91;5030397;28;19909;-52
2022/10/25 01:21:52;;;;;;;;;;;14.80;72.60;;;10.45;100.00;95883.03;5031131;28;19913;-56
2022/10/25 01:24:36;;;;;;;;;;;14.80;72.50;;;10.44;100.00;95892.09;5012873;28;19950;-56
2022/10/25 01:27:33;;;;;;;;;;;14.90;72.60;;;10.44;100.00;95897.41;5029452;28;19909;-55
2022/10/25 01:30:46;;;;;;;;;;;14.80;72.40;;;10.42;100.00;95890.47;5034599;28;19945;-55
2022/10/25 01:33:41;;;;;;;;;;;14.80;72.40;;;10.42;100.00;95887.00;4968357;28;20439;-56
2022/10/25 01:36:45;;;;;;;;;;;14.80;72.40;;;10.35;100.00;95873.13;5012629;28;19952;-55
2022/10/25 01:39:46;;;;;;;;;;;14.80;72.40;;;10.38;100.00;95870.72;5012877;28;19915;-51
2022/10/25 01:43:00;;;;;;;;;;;14.80;72.40;;;10.37;100.00;95860.31;4996808;28;19912;-56
2022/10/25 01:45:47;;;;;;;;;;;14.80;72.40;;;10.36;100.00;95861.41;5028922;28;19913;-52
2022/10/25 01:48:28;;;;;;;;;;;14.80;72.40;;;10.35;100.00;95849.94;5029862;28;20137;-54
2022/10/25 01:50:54;;;;;;;;;;;14.70;72.40;;;10.32;100.00;95858.44;5013868;28;19916;-51
2022/10/25 01:53:20;;;;;;;;;;;14.80;72.40;;;10.33;100.00;95861.91;5012937;28;19909;-55
2022/10/25 01:55:59;;;;;;;;;;;14.70;72.30;;;10.31;100.00;95853.34;5022059;28;19909;-54
2022/10/25 01:58:45;;;;;;;;;;;14.70;72.30;;;10.28;100.00;95854.69;5010822;28;19909;-54
2022/10/25 02:01:59;;;;;;;;;;;14.70;72.30;;;10.21;100.00;95851.41;4999585;28;20400;-52
2022/10/25 02:04:36;;;;;;;;;;;14.60;72.20;;;10.19;100.00;95857.00;5033358;28;19913;-56
2022/10/25 02:07:36;;;;;;;;;;;14.60;72.30;;;10.17;100.00;95866.28;5044682;28;19912;-51
2022/10/25 02:10:37;;;;;;;;;;;14.60;72.30;;;10.14;100.00;95870.25;5034556;28;19909;-50
2022/10/25 02:13:35;;;;;;;;;;;14.50;72.20;;;10.08;100.00;95876.59;4984312;28;19909;-55
2022/10/25 02:16:26;;;;;;;;;;;14.50;72.30;;;9.99;100.00;95872.78;5012843;28;19909;-51
2022/10/25 02:19:04;;;;;;;;;;;14.40;72.20;;;9.95;100.00;95863.72;5033294;28;20015;-51
2022/10/25 02:21:36;;;;;;;;;;;14.40;72.20;;;9.88;100.00;95863.94;5033972;28;19944;-52
2022/10/25 02:24:17;;;;;;;;;;;14.40;72.20;;;9.83;100.00;95865.72;5015388;28;20343;-50
2022/10/25 02:26:49;;;;;;;;;;;14.30;72.20;;;9.75;100.00;95867.00;5016504;28;19948;-54
2022/10/25 02:29:22;;;;;;;;;;;14.20;72.10;;;9.73;100.00;95874.41;5016550;28;19913;-52
2022/10/25 02:31:49;;;;;;;;;;;14.20;72.20;;;9.64;100.00;95859.97;5034772;28;19909;-52
2022/10/25 02:34:18;;;;;;;;;;;14.10;72.30;;;9.59;100.00;95878.53;4999871;28;19913;-52
2022/10/25 02:36:48;;;;;;;;;;;14.10;72.30;;;9.53;100.00;95875.03;5014798;28;20009;-52
2022/10/25 02:39:21;;;;;;;;;;;14.00;72.30;;;9.50;100.00;95875.53;5033792;28;19978;-54
2022/10/25 02:41:56;;;;;;;;;;;13.90;72.30;;;9.42;100.00;95879.44;4999012;28;19959;-49
2022/10/25 02:44:24;;;;;;;;;;;13.90;72.30;;;9.41;100.00;95883.16;5016181;28;19917;-51
2022/10/25 02:46:50;;;;;;;;;;;13.90;72.40;;;9.35;100.00;95883.34;4999494;28;19912;-51
2022/10/25 02:49:16;;;;;;;;;;;13.80;72.40;;;9.35;100.00;95880.69;5045639;28;19958;-54
2022/10/25 02:51:44;;;;;;;;;;;13.80;72.40;;;9.31;100.00;95879.56;5033477;28;19978;-54
2022/10/25 02:54:10;;;;;;;;;;;13.80;72.50;;;9.25;100.00;95878.72;5018521;28;19928;-50
2022/10/25 02:56:45;;;;;;;;;;;13.70;72.40;;;9.21;100.00;95881.06;5015635;28;19908;-51
2022/10/25 02:59:14;;;;;;;;;;;13.70;72.50;;;9.21;100.00;95890.88;5033448;28;19908;-51
2022/10/25 03:01:39;;;;;;;;;;;13.60;72.50;;;9.20;100.00;95887.41;5037964;28;19917;-56
2022/10/25 03:04:14;;;;;;;;;;;13.60;72.60;;;9.18;100.00;95878.91;5028311;28;20397;-57
2022/10/25 03:06:49;;;;;;;;;;;13.60;72.60;;;9.19;100.00;95877.84;5012540;28;19909;-57
2022/10/25 03:09:19;;;;;;;;;;;13.60;72.60;;;9.21;100.00;95882.91;5012712;28;20279;-59
2022/10/25 03:11:44;;;;;;;;;;;13.60;72.70;;;9.21;100.00;95880.25;4994200;28;19913;-58
2022/10/25 03:14:19;;;;;;;;;;;13.60;72.70;;;9.19;100.00;95879.72;5028364;28;19916;-53
2022/10/25 03:16:45;;;;;;;;;;;13.60;72.70;;;9.19;100.00;95879.72;5013299;28;19920;-55
2022/10/25 03:19:14;;;;;;;;;;;13.60;72.70;;;9.16;100.00;95874.88;5016988;28;19909;-57
2022/10/25 03:21:52;;;;;;;;;;;13.60;72.70;;;9.11;100.00;95867.66;5011513;28;20172;-58
2022/10/25 03:24:24;;;;;;;;;;;13.50;72.60;;;9.08;100.00;95872.66;5011083;28;20332;-57
2022/10/25 03:27:01;;;;;;;;;;;13.50;72.70;;;9.02;100.00;95875.28;5028403;28;20356;-56
2022/10/25 03:29:27;;;;;;;;;;;13.50;72.70;;;8.98;100.00;95876.00;5012843;28;19948;-58
2022/10/25 03:31:56;;;;;;;;;;;13.40;72.80;;;8.98;100.00;95878.66;5027901;28;19953;-56
2022/10/25 03:34:22;;;;;;;;;;;13.40;72.70;;;8.97;100.00;95883.16;5013065;28;19909;-58
2022/10/25 03:36:51;;;;;;;;;;;13.50;72.80;;;8.97;100.00;95869.88;5012576;28;20015;-54
2022/10/25 03:39:32;;;;;;;;;;;13.40;72.80;;;9.00;100.00;95877.38;5028244;28;20286;-58
2022/10/25 03:42:04;;;;;;;;;;;13.40;72.80;;;9.01;100.00;95886.94;5010396;28;19940;-58
2022/10/25 03:44:36;;;;;;;;;;;13.40;72.80;;;9.01;100.00;95878.97;5011484;28;19920;-56
2022/10/25 03:47:04;;;;;;;;;;;13.40;72.80;;;8.98;100.00;95884.75;5011697;28;20054;-58
2022/10/25 03:49:30;;;;;;;;;;;13.40;72.90;;;8.95;100.00;95882.59;5010542;28;20007;-58
2022/10/25 03:51:56;;;;;;;;;;;13.30;72.80;;;8.90;100.00;95887.03;5027547;28;20055;-58
2022/10/25 03:54:25;;;;;;;;;;;13.30;72.70;;;8.85;100.00;95887.78;5015177;28;19909;-55
2022/10/25 03:56:56;;;;;;;;;;;13.30;72.70;;;8.78;100.00;95889.81;5027882;28;19959;-56
2022/10/25 03:59:22;;;;;;;;;;;13.20;72.70;;;8.72;100.00;95885.50;4994502;28;19909;-51
2022/10/25 04:01:48;;;;;;;;;;;13.20;72.70;;;8.71;100.00;95881.22;5010730;28;19924;-58
2022/10/25 04:04:20;;;;;;;;;;;13.20;72.80;;;8.70;100.00;95882.28;5012100;28;19919;-56
2022/10/25 04:06:55;;;;;;;;;;;13.20;72.80;;;8.74;100.00;95884.22;5011749;28;19963;-58
2022/10/25 04:09:26;;;;;;;;;;;13.10;72.90;;;8.75;100.00;95885.81;5027677;28;19963;-56
2022/10/25 04:11:52;;;;;;;;;;;13.10;73.00;;;8.73;100.00;95881.78;5015064;28;19909;-57
2022/10/25 04:14:21;;;;;;;;;;;13.10;73.00;;;8.73;100.00;95890.53;4996763;28;19932;-58
2022/10/25 04:16:47;;;;;;;;;;;13.10;73.00;;;8.63;100.00;95879.00;5011998;28;19921;-57
2022/10/25 04:19:13;;;;;;;;;;;13.00;72.80;;;8.57;100.00;95884.22;5011027;28;20391;-58
2022/10/25 04:21:39;;;;;;;;;;;13.00;72.70;;;8.51;100.00;95887.06;5011514;28;19919;-56
2022/10/25 04:24:05;;;;;;;;;;;13.00;72.70;;;8.47;100.00;95881.44;5009528;28;19913;-57
2022/10/25 04:26:35;;;;;;;;;;;12.90;72.70;;;8.41;100.00;95879.75;5010268;28;20378;-47
2022/10/25 04:29:19;;;;;;;;;;;12.90;72.70;;;8.34;100.00;95882.53;5010485;28;20076;-48
2022/10/25 04:31:45;;;;;;;;;;;12.80;72.70;;;8.26;100.00;95874.97;4993044;28;19913;-48
2022/10/25 04:34:19;;;;;;;;;;;12.80;72.70;;;8.24;100.00;95881.56;5011812;28;19915;-48
2022/10/25 04:36:45;;;;;;;;;;;12.80;72.80;;;8.21;100.00;95876.75;5025962;28;19913;-47
2022/10/25 04:39:11;;;;;;;;;;;12.70;72.70;;;8.18;100.00;95879.88;5010537;28;19909;-48
2022/10/25 04:41:43;;;;;;;;;;;12.70;72.70;;;8.14;100.00;95879.56;4992688;28;19916;-49
2022/10/25 04:44:09;;;;;;;;;;;12.70;72.80;;;8.11;100.00;95875.53;5026877;28;19921;-49
2022/10/25 04:46:35;;;;;;;;;;;12.60;72.90;;;8.15;100.00;95883.84;5010389;28;19909;-50
2022/10/25 04:49:01;;;;;;;;;;;12.60;73.00;;;8.19;100.00;95882.31;5009609;28;20296;-51
2022/10/25 04:51:26;;;;;;;;;;;12.70;73.10;;;8.22;100.00;95883.69;5009718;28;19962;-50
2022/10/25 04:53:56;;;;;;;;;;;12.70;73.10;;;8.35;100.00;95884.13;5009596;28;20375;-48
2022/10/25 04:56:27;;;;;;;;;;;12.80;73.30;;;8.52;100.00;95878.84;5010379;28;19909;-51
2022/10/25 04:58:53;;;;;;;;;;;12.80;73.50;;;8.63;100.00;95884.31;5010450;28;19913;-51
2022/10/25 05:01:19;;;;;;;;;;;12.90;73.60;;;8.69;100.00;95884.13;5008585;28;19917;-47
2022/10/25 05:03:57;;;;;;;;;;;13.00;73.60;;;8.74;100.00;95884.22;5026512;28;19917;-50
2022/10/25 05:06:25;;;;;;;;;;;13.00;73.60;;;8.78;100.00;95887.16;5010591;28;19952;-53
2022/10/25 05:08:54;;;;;;;;;;;13.10;73.60;;;8.79;100.00;95884.25;5011499;28;20003;-49
2022/10/25 05:11:24;;;;;;;;;;;13.10;73.40;;;8.80;100.00;95885.06;4993365;28;20378;-50
2022/10/25 05:13:53;;;;;;;;;;;13.10;73.30;;;8.81;100.00;95881.38;5010390;28;20043;-47
2022/10/25 05:16:24;;;;;;;;;;;13.20;73.30;;;8.81;100.00;95876.06;5011027;28;19909;-51
2022/10/25 05:18:53;;;;;;;;;;;13.20;73.20;;;8.83;100.00;95873.94;5020150;28;20649;-48
2022/10/25 05:21:34;;;;;;;;;;;13.20;73.20;;;8.87;100.00;95883.03;5027306;28;20009;-47
2022/10/25 05:24:00;;;;;;;;;;;13.20;73.20;;;8.88;100.00;95881.19;5018762;28;19917;-55
2022/10/25 05:26:26;;;;;;;;;;;13.20;73.20;;;8.88;100.00;95884.66;5008585;28;19913;-49
2022/10/25 05:28:54;;;;;;;;;;;13.20;73.30;;;8.93;100.00;95883.88;5006483;28;20328;-52
2022/10/25 05:31:27;;;;;;;;;;;13.30;73.40;;;8.94;100.00;95883.66;5005072;28;19931;-49
2022/10/25 05:34:00;;;;;;;;;;;13.30;73.40;;;8.98;100.00;95883.97;5025894;28;19956;-49
2022/10/25 05:36:28;;;;;;;;;;;13.30;73.40;;;8.97;100.00;95877.06;5013245;28;19916;-50
2022/10/25 05:38:55;;;;;;;;;;;13.40;73.40;;;8.93;100.00;95890.03;5008312;28;19909;-49
2022/10/25 05:41:23;;;;;;;;;;;13.30;73.20;;;8.90;100.00;95889.69;5009470;28;19909;-47
2022/10/25 05:43:49;;;;;;;;;;;13.40;73.20;;;8.89;100.00;95880.94;5005455;28;19913;-48
2022/10/25 05:46:19;;;;;;;;;;;13.40;73.10;;;8.92;100.00;95892.91;5006751;28;19978;-47
2022/10/25 05:48:45;;;;;;;;;;;13.40;73.10;;;8.89;100.00;95893.41;4991424;28;20133;-48
2022/10/25 05:51:15;;;;;;;;;;;13.30;73.00;;;8.87;100.00;95896.31;5008398;28;19909;-48
2022/10/25 05:53:51;;;;;;;;;;;13.30;73.00;;;8.86;100.00;95900.00;5007200;28;20411;-47
2022/10/25 05:56:20;;;;;;;;;;;13.20;72.90;;;8.81;100.00;95905.28;5009480;28;19909;-47
2022/10/25 05:58:46;;;;;;;;;;;13.30;73.00;;;8.76;100.00;95906.00;5008020;28;19913;-57
2022/10/25 06:01:18;;;;;;;;;;;13.20;72.90;;;8.73;100.00;95908.34;5006155;28;19996;-54
2022/10/25 06:03:49;;;;;;;;;;;13.20;72.90;;;8.71;100.00;95907.78;5002347;28;20380;-49
2022/10/25 06:06:15;;;;;;;;;;;13.20;72.90;;;8.64;100.00;95907.16;5024918;28;19913;-51
2022/10/25 06:08:44;;;;;;;;;;;13.20;73.60;;;8.57;100.00;95910.78;4991725;28;19909;-49
2022/10/25 06:11:15;;;;;;;;;;;13.10;72.80;;;8.61;100.00;95923.56;5008251;28;19909;-49
2022/10/25 06:13:41;;;;;;;;;;;13.10;72.90;;;8.62;100.00;95914.53;5028017;28;20211;-49
2022/10/25 06:16:12;;;;;;;;;;;13.10;73.00;;;8.61;100.00;95908.44;4993914;28;19920;-52
2022/10/25 06:18:38;;;;;;;;;;;13.10;73.00;;;8.66;100.00;95913.81;5006467;28;19909;-50
2022/10/25 06:21:11;;;;;;;;;;;13.20;73.10;;;8.74;100.00;95910.78;5009293;28;19909;-50
2022/10/25 06:23:37;;;;;;;;;;;13.20;73.20;;;8.79;100.00;95908.16;5009316;28;19913;-54
2022/10/25 06:26:32;;;;;;;;;;;13.30;73.20;;;8.85;100.00;95919.66;5007608;28;19912;-50
2022/10/25 06:29:05;;;;;;;;;;;13.40;73.20;;;8.92;100.00;95928.25;5008554;28;20391;-48
2022/10/25 06:31:34;;;;;;;;;;;13.40;73.20;;;8.99;100.00;95923.59;4991925;28;20317;-48
2022/10/25 06:34:01;;;;;;;;;;;13.50;73.30;;;9.04;100.00;95934.25;5025374;28;19909;-50
2022/10/25 06:36:30;;;;;;;;;;;13.60;73.20;;;9.08;100.00;95939.88;5024801;28;19959;-49
2022/10/25 06:39:02;;;;;;;;;;;13.70;73.20;;;9.12;100.00;95934.88;5021928;28;20342;-50
2022/10/25 06:41:30;;;;;;;;;;;13.70;73.10;;;9.15;100.00;95937.03;5007765;28;19913;-52
2022/10/25 06:43:58;;;;;;;;;;;13.80;73.10;;;9.20;100.00;95937.91;5037169;28;19924;-48
2022/10/25 06:46:26;;;;;;;;;;;13.80;73.00;;;9.27;100.00;95945.72;5009302;28;19955;-48
2022/10/25 06:48:55;;;;;;;;;;;13.90;73.00;;;9.30;100.00;95929.25;5009691;28;19959;-47
2022/10/25 06:51:23;;;;;;;;;;;14.00;72.90;;;9.37;100.00;95937.06;5011490;28;19909;-48
2022/10/25 06:54:01;;;;;;;;;;;14.10;72.90;;;9.44;100.00;95941.16;5011843;28;19913;-48
2022/10/25 06:56:28;;;;;;;;;;;14.20;72.90;;;9.51;100.00;95935.63;5012334;28;19999;-54
2022/10/25 06:58:54;;;;;;;;;;;14.30;72.80;;;9.58;100.00;95941.56;4996019;28;19915;-52
2022/10/25 07:01:23;;;;;;;;;;;14.30;72.70;;;9.66;100.00;95935.81;5037958;28;20356;-50
2022/10/25 07:03:54;;;;;;;;;;;14.40;72.70;;;9.78;100.00;95951.63;5015597;28;19917;-48
2022/10/25 07:06:27;;;;;;;;;;;14.50;72.70;;;9.83;100.00;95954.31;4999189;28;19935;-48
2022/10/25 07:08:59;;;;;;;;;;;14.60;72.60;;;9.88;100.00;95950.94;5015346;28;20009;-52
2022/10/25 07:11:30;;;;;;;;;;;14.60;73.30;;;9.94;100.00;95950.72;4999347;28;19915;-53
2022/10/25 07:13:58;;;;;;;;;;;14.70;72.60;;;10.07;100.00;95956.72;5027183;28;20031;-49
2022/10/25 07:16:26;;;;;;;;;;;14.80;72.60;;;10.23;100.00;95953.13;5033210;28;20015;-47
2022/10/25 07:19:00;;;;;;;;;;;15.00;72.60;;;10.49;100.00;95951.50;5014274;28;20369;-48
2022/10/25 07:21:33;;;;;;;;;;;15.20;72.60;;;10.83;100.00;95956.53;5015539;28;19916;-48
2022/10/25 07:24:10;;;;;;;;;;;15.50;72.60;;;11.07;100.00;95963.09;5014734;28;20252;-48
2022/10/25 07:26:36;;;;;;;;;;;15.80;72.60;;;11.32;100.00;95962.41;5032960;28;19909;-48
2022/10/25 07:29:03;;;;;;;;;;;16.10;72.50;;;11.46;100.00;95970.75;5014541;28;19913;-55
2022/10/25 07:31:36;;;;;;;;;;;16.30;72.30;;;11.60;100.00;95962.28;5010918;28;20375;-58
2022/10/25 07:34:04;;;;;;;;;;;16.50;72.10;;;11.70;100.00;95970.31;5028092;28;19915;-59
2022/10/25 07:36:31;;;;;;;;;;;16.60;71.90;;;11.73;100.00;95969.78;5022174;28;19999;-58
2022/10/25 07:38:57;;;;;;;;;;;16.60;71.70;;;11.71;100.00;95972.72;5017677;28;19912;-57
2022/10/25 07:41:24;;;;;;;;;;;16.70;71.60;;;11.64;100.00;95977.50;5032416;28;19943;-56
2022/10/25 07:43:57;;;;;;;;;;;16.70;71.40;;;11.72;100.00;95982.34;5015607;28;19966;-56
2022/10/25 07:46:25;;;;;;;;;;;16.80;71.30;;;11.76;100.00;95988.75;5015158;28;20478;-59
2022/10/25 07:48:51;;;;;;;;;;;16.90;71.30;;;11.81;100.00;95991.44;5003135;28;19913;-58
2022/10/25 07:51:21;;;;;;;;;;;17.00;71.20;;;11.92;100.00;95989.63;5032504;28;19962;-57
2022/10/25 07:53:47;;;;;;;;;;;17.30;71.10;;;12.22;100.00;95985.41;5033269;28;20255;-56
2022/10/25 07:56:16;;;;;;;;;;;17.70;70.90;;;12.57;100.00;95994.56;5022456;28;19913;-53
2022/10/25 07:58:54;;;;;;;;;;;18.10;70.70;;;13.02;100.00;95992.91;5029560;28;20003;-54
2022/10/25 08:01:26;;;;;;;;;;;18.60;70.40;;;13.32;100.00;95995.56;5028287;28;19916;-54
2022/10/25 08:03:54;;;;;;;;;;;19.10;70.30;;;13.52;100.00;96000.06;5032295;28;19913;-57
2022/10/25 08:06:24;;;;;;;;;;;19.50;69.90;;;13.87;100.00;95995.63;5014403;28;20343;-53
2022/10/25 08:08:51;;;;;;;;;;;20.00;69.50;;;14.15;100.00;95988.78;5014146;28;19912;-58
2022/10/25 08:11:17;;;;;;;;;;;20.40;69.10;;;14.48;98.60;95987.25;5010203;28;20315;-56
2022/10/25 08:13:46;;;;;;;;;;;20.80;68.70;;;14.70;96.91;95991.41;5011398;28;20335;-55
2022/10/25 08:16:14;;;;;;;;;;;21.10;68.00;;;15.01;97.50;95991.91;5013266;28;19916;-57
2022/10/25 08:18:42;;;;;;;;;;;21.40;67.70;;;15.11;90.05;95986.47;5028245;28;19939;-57
2022/10/25 08:21:08;;;;;;;;;;;21.70;67.10;;;15.28;86.43;95986.03;5013193;28;19916;-54
2022/10/25 08:23:34;;;;;;;;;;;22.00;66.20;;;15.57;85.84;95985.19;5030778;28;20282;-54
2022/10/25 08:26:06;;;;;;;;;;;22.20;66.00;;;15.84;84.51;95981.94;5029919;28;19955;-56
2022/10/25 08:28:35;;;;;;;;;;;22.50;66.10;;;16.03;78.95;95981.97;5017955;28;19909;-57
2022/10/25 08:31:03;;;;;;;;;;;22.80;65.80;;;16.36;79.93;95980.16;5041269;28;20434;-54
2022/10/25 08:33:29;;;;;;;;;;;23.10;65.50;;;16.65;80.32;95982.69;5021328;28;20303;-58
2022/10/25 08:35:59;;;;;;;;;;;23.40;65.10;;;16.86;75.47;95975.13;5019082;28;19923;-56
2022/10/25 08:38:24;;;;;;;;;;;23.70;64.80;;;17.02;74.67;95979.13;5016964;28;19909;-53
2022/10/25 08:40:59;;;;;;;;;;;24.00;64.30;;;17.25;73.03;95973.88;5036364;28;19932;-55
2022/10/25 08:44:07;;;;;;;;;;;24.30;63.90;;;17.47;72.21;95965.94;5032715;28;19951;-55
2022/10/25 08:47:09;;;;;;;;;;;24.60;63.20;;;17.90;70.74;95965.66;5033062;28;20011;-57
2022/10/25 08:50:04;;;;;;;;;;;24.90;62.60;;;18.08;68.24;95979.28;4991565;28;19916;-57
2022/10/25 08:52:54;;;;;;;;;;;25.20;62.10;;;18.21;67.76;95965.78;5014063;28;19916;-54
2022/10/25 08:55:34;;;;;;;;;;;25.40;61.00;;;18.26;66.77;95968.34;5023021;28;19999;-57
2022/10/25 08:58:05;;;;;;;;;;;25.60;59.80;;;18.55;68.91;95963.66;5031332;28;19916;-55
2022/10/25 09:00:39;;;;;;;;;;;25.70;59.40;;;18.92;66.22;95968.72;4993131;28;20020;-57
2022/10/25 09:03:17;;;;;;;;;;;25.80;59.30;;;19.16;65.37;95957.59;5024293;28;19970;-50
2022/10/25 09:06:55;;;;;;;;;;;26.00;59.10;;;19.46;62.87;95957.06;5010405;28;19964;-50
2022/10/25 09:10:00;;;;;;;;;;;26.30;59.30;;;19.63;61.99;95952.53;4964618;28;19995;-51
2022/10/25 09:12:49;;;;;;;;;;;26.70;59.00;;;19.76;61.58;95955.47;5012205;28;20434;-50
2022/10/25 09:16:12;;;;;;;;;;;26.90;58.50;;;20.07;59.57;95952.66;5011350;28;20008;-50
2022/10/25 09:18:58;;;;;;;;;;;27.10;57.90;;;20.31;59.49;95949.50;5010283;28;20011;-52
2022/10/25 09:22:17;;;;;;;;;;;27.40;58.00;;;20.42;59.29;95947.28;5025345;28;19916;-52
2022/10/25 09:25:33;;;;;;;;;;;27.60;58.00;;;20.76;59.44;95950.00;5025487;28;19924;-55
2022/10/25 09:28:06;;;;;;;;;;;27.90;58.00;;;21.09;58.15;95954.88;5026221;28;19916;-50
2022/10/25 09:30:42;;;;;;;;;;;28.10;57.90;;;21.22;58.07;95955.78;5009294;28;19909;-54
2022/10/25 09:33:18;;;;;;;;;;;28.40;57.60;;;21.42;55.78;95959.72;5009460;28;19916;-52
2022/10/25 09:36:09;;;;;;;;;;;28.60;57.40;;;21.49;57.94;95949.97;5009455;28;19909;-51
2022/10/25 09:39:06;;;;;;;;;;;28.80;57.30;;;21.59;56.28;95956.16;5009651;28;19999;-52
2022/10/25 09:41:39;;;;;;;;;;;29.00;57.10;;;21.53;56.20;95960.16;5008296;28;19913;-56
2022/10/25 09:44:12;;;;;;;;;;;29.20;57.70;;;21.41;55.47;95955.44;5021406;28;19989;-53
2022/10/25 09:47:07;;;;;;;;;;;29.20;56.70;;;21.48;54.84;95961.16;4994089;28;20380;-50
2022/10/25 09:50:17;;;;;;;;;;;29.20;56.30;;;21.56;53.92;95949.47;5017286;28;19913;-57
2022/10/25 09:53:24;;;;;;;;;;;29.20;56.30;;;21.66;55.07;95956.44;4998739;28;19924;-56
2022/10/25 09:56:03;;;;;;;;;;;29.30;56.10;;;21.70;54.58;95947.31;5007533;28;20287;-52
2022/10/25 09:58:43;;;;;;;;;;;29.30;55.90;;;21.58;54.52;95954.56;5011304;28;27154;-57
2022/10/25 10:01:24;;;;;;;;;;;29.30;55.60;;;21.70;53.37;95941.91;5016852;28;20402;-51
2022/10/25 10:04:03;;;;;;;;;;;29.30;55.40;;;21.60;53.24;95953.13;5013729;28;19923;-52
2022/10/25 10:06:37;;;;;;;;;;;29.40;55.30;;;21.66;52.69;95956.44;5021926;28;20496;-51
2022/10/25 10:09:11;;;;;;;;;;;29.30;54.90;;;21.81;54.30;95953.19;5007049;28;19943;-54
2022/10/25 10:11:38;;;;;;;;;;;29.40;54.70;;;21.91;55.64;95958.22;4990043;28;19920;-55
2022/10/25 10:14:24;;;;;;;;;;;29.50;54.60;;;21.87;53.05;95959.19;5012998;28;20004;-54
2022/10/25 10:16:56;;;;;;;;;;;29.60;54.40;;;21.68;53.59;95952.28;5010929;28;19912;-52
2022/10/25 10:19:30;;;;;;;;;;;29.70;54.00;;;21.60;54.79;95950.41;5023397;28;20447;-55
2022/10/25 10:22:22;;;;;;;;;;;29.70;53.70;;;21.41;54.19;95955.44;5008382;28;19916;-54
2022/10/25 10:24:59;;;;;;;;;;;29.70;53.50;;;21.59;52.80;95940.69;4998327;28;19917;-53
2022/10/25 10:27:27;;;;;;;;;;;29.60;53.20;;;21.66;52.55;95945.59;5007664;28;20283;-54
2022/10/25 10:30:06;;;;;;;;;;;29.70;53.10;;;21.93;52.57;95942.41;5021454;28;19983;-51
2022/10/25 10:32:35;;;;;;;;;;;29.70;52.90;;;22.00;52.76;95947.34;5010710;28;19915;-55
2022/10/25 10:35:25;;;;;;;;;;;29.70;52.60;;;22.15;51.38;95945.94;5010919;28;19959;-52
2022/10/25 10:37:50;;;;;;;;;;;29.80;52.50;;;22.18;51.53;95948.81;5008303;28;19952;-57
2022/10/25 10:40:25;;;;;;;;;;;30.00;52.50;;;22.30;52.82;95939.16;5012721;28;20366;-51
2022/10/25 10:43:32;;;;;;;;;;;30.10;52.30;;;22.41;52.42;95940.38;5013170;28;19915;-53
2022/10/25 10:46:14;;;;;;;;;;;30.20;52.00;;;22.42;53.28;95938.44;4996236;28;19913;-53
2022/10/25 10:48:55;;;;;;;;;;;30.50;52.00;;;22.46;49.97;95931.22;5012021;28;19909;-54
2022/10/25 10:51:38;;;;;;;;;;;30.70;51.70;;;22.65;50.92;95934.25;5012163;28;20391;-53
2022/10/25 10:54:28;;;;;;;;;;;30.90;51.50;;;22.10;52.63;95935.31;5012526;28;19916;-52
2022/10/25 10:57:06;;;;;;;;;;;31.00;51.10;;;22.32;52.41;95928.78;5028901;28;19962;-54
2022/10/25 10:59:44;;;;;;;;;;;31.10;50.80;;;22.51;50.57;95928.31;5013248;28;19909;-57
2022/10/25 11:02:34;;;;;;;;;;;31.10;50.70;;;22.90;51.36;95920.75;5028384;28;20012;-51
2022/10/25 11:05:00;;;;;;;;;;;31.40;50.60;;;23.35;51.36;95919.94;5027682;28;20008;-52
2022/10/25 11:07:34;;;;;;;;;;;31.50;50.40;;;23.40;50.36;95919.75;5008332;28;20019;-51
2022/10/25 11:10:15;;;;;;;;;;;31.90;50.40;;;23.43;50.21;95914.41;4991184;28;19941;-56
2022/10/25 11:12:44;;;;;;;;;;;32.00;50.00;;;23.29;50.80;95905.81;5015461;28;19913;-57
2022/10/25 11:15:17;;;;;;;;;;;32.20;49.80;;;23.15;50.05;95914.28;5011690;28;20402;-52
2022/10/25 11:18:15;;;;;;;;;;;32.40;49.60;;;23.34;49.06;95913.72;4993532;28;19923;-55
2022/10/25 11:20:58;;;;;;;;;;;32.40;49.20;;;23.31;50.56;95900.81;5011523;28;19913;-56
2022/10/25 11:24:05;;;;;;;;;;;32.50;48.80;;;23.66;47.75;95897.66;5011632;28;20011;-54
2022/10/25 11:27:08;;;;;;;;;;;32.70;48.70;;;23.78;49.65;95895.78;5013057;28;19916;-52
2022/10/25 11:30:06;;;;;;;;;;;32.90;48.70;;;24.01;48.80;95896.06;5012633;28;20322;-54
2022/10/25 11:33:20;;;;;;;;;;;33.10;48.50;;;23.85;49.12;95900.63;5008960;28;20423;-55
2022/10/25 11:35:52;;;;;;;;;;;33.30;48.30;;;23.69;48.98;95892.38;5009082;28;19909;-57
2022/10/25 11:38:42;;;;;;;;;;;33.40;48.00;;;23.83;48.57;95893.94;5005356;28;19909;-53
2022/10/25 11:41:49;;;;;;;;;;;33.60;47.80;;;24.05;50.90;95896.16;5026333;28;20090;-52
2022/10/25 11:44:29;;;;;;;;;;;33.70;47.60;;;24.35;48.32;95887.69;5019250;28;19921;-52
2022/10/25 11:47:33;;;;;;;;;;;33.90;47.50;;;24.10;46.09;95882.34;5025727;28;19913;-56
2022/10/25 11:50:22;;;;;;;;;;;34.10;47.30;;;23.95;47.88;95891.22;5015107;28;20276;-53
2022/10/25 11:53:10;;;;;;;;;;;34.20;46.90;;;24.33;48.16;95887.25;5009474;28;19909;-53